createdAt,value
2022-09-17T00:01:30.125Z,10.20
2022-09-17T00:03:59.141Z,10.20
2022-09-17T00:06:27.658Z,10.20
2022-09-17T00:08:55.376Z,10.20
2022-09-17T00:11:27.154Z,10.20
2022-09-17T00:13:57.481Z,10.20
2022-09-17T00:16:30.381Z,10.30
2022-09-17T00:18:58.125Z,10.30
2022-09-17T00:21:26.326Z,10.30
2022-09-17T00:23:58.544Z,10.30
2022-09-17T00:26:27.485Z,10.30
2022-09-17T00:28:56.741Z,10.30
2022-09-17T00:31:24.768Z,10.40
2022-09-17T00:33:53.239Z,10.30
2022-09-17T00:36:22.188Z,10.40
2022-09-17T00:38:58.413Z,10.30
2022-09-17T00:41:31.025Z,10.40
2022-09-17T00:44:01.956Z,10.40
2022-09-17T00:46:44.461Z,10.40
2022-09-17T00:49:18.697Z,10.40
2022-09-17T00:52:03.035Z,10.30
2022-09-17T00:54:31.249Z,10.30
2022-09-17T00:56:58.080Z,10.30
2022-09-17T00:59:26.361Z,10.30
2022-09-17T01:01:54.795Z,10.30
2022-09-17T01:04:26.116Z,10.30
2022-09-17T01:07:11.464Z,10.30
2022-09-17T01:09:55.131Z,10.40
2022-09-17T01:12:52.147Z,10.40
2022-09-17T01:15:34.092Z,10.40
2022-09-17T01:18:41.587Z,10.40
2022-09-17T01:21:33.240Z,10.40
2022-09-17T01:24:29.379Z,10.40
2022-09-17T01:26:55.947Z,10.40
2022-09-17T01:30:00.325Z,10.40
2022-09-17T01:32:49.491Z,10.40
2022-09-17T01:35:37.362Z,10.40
2022-09-17T01:38:30.121Z,10.40
2022-09-17T01:41:25.830Z,10.50
2022-09-17T01:43:58.683Z,10.50
2022-09-17T01:47:04.048Z,10.50
2022-09-17T01:49:34.339Z,10.50
2022-09-17T01:52:02.825Z,10.50
2022-09-17T01:54:39.219Z,10.60
2022-09-17T01:57:25.217Z,10.60
2022-09-17T02:00:10.187Z,10.60
2022-09-17T02:03:06.350Z,10.50
2022-09-17T02:05:48.346Z,10.60
2022-09-17T02:08:17.374Z,10.60
2022-09-17T02:10:49.437Z,10.60
2022-09-17T02:13:28.247Z,10.60
2022-09-17T02:16:04.429Z,10.60
2022-09-17T02:19:01.323Z,10.60
2022-09-17T02:22:03.404Z,10.60
2022-09-17T02:24:42.820Z,10.50
2022-09-17T02:27:40.089Z,10.50
2022-09-17T02:30:08.134Z,10.50
2022-09-17T02:32:38.102Z,10.50
2022-09-17T02:35:06.556Z,10.50
2022-09-17T02:37:34.466Z,10.50
2022-09-17T02:40:04.273Z,10.60
2022-09-17T02:42:55.882Z,10.60
2022-09-17T02:45:28.245Z,10.60
2022-09-17T02:48:06.830Z,10.60
2022-09-17T02:51:04.358Z,10.60
2022-09-17T02:53:47.559Z,10.60
2022-09-17T02:56:42.943Z,10.60
2022-09-17T02:59:24.115Z,10.60
2022-09-17T03:02:33.002Z,10.60
2022-09-17T03:05:00.914Z,10.60
2022-09-17T03:07:27.705Z,10.60
2022-09-17T03:09:55.898Z,10.60
2022-09-17T03:12:23.788Z,10.60
2022-09-17T03:14:51.759Z,10.70
2022-09-17T03:17:19.578Z,10.70
2022-09-17T03:19:46.221Z,10.70
2022-09-17T03:22:12.816Z,10.70
2022-09-17T03:24:40.786Z,10.70
2022-09-17T03:27:08.697Z,10.80
2022-09-17T03:29:36.422Z,10.70
2022-09-17T03:32:04.549Z,10.80
2022-09-17T03:34:32.798Z,10.80
2022-09-17T03:37:00.947Z,10.80
2022-09-17T03:39:30.000Z,10.70
2022-09-17T03:41:57.982Z,10.70
2022-09-17T03:44:29.605Z,10.70
2022-09-17T03:46:59.695Z,10.70
2022-09-17T03:49:26.378Z,10.70
2022-09-17T03:51:53.062Z,10.80
2022-09-17T03:54:19.700Z,10.80
2022-09-17T03:56:47.707Z,10.80
2022-09-17T03:59:16.003Z,10.70
2022-09-17T04:01:44.033Z,10.80
2022-09-17T04:04:11.967Z,10.70
2022-09-17T04:06:38.586Z,10.80
2022-09-17T04:09:05.260Z,10.80
2022-09-17T04:11:32.995Z,10.80
2022-09-17T04:14:00.774Z,10.80
2022-09-17T04:16:28.448Z,10.80
2022-09-17T04:18:57.670Z,10.80
2022-09-17T04:21:27.587Z,10.80
2022-09-17T04:23:57.519Z,10.80
2022-09-17T04:26:27.433Z,10.80
2022-09-17T04:28:56.110Z,10.80
2022-09-17T04:31:33.104Z,10.80
2022-09-17T04:34:00.936Z,10.90
2022-09-17T04:36:27.695Z,10.90
2022-09-17T04:38:54.347Z,10.90
2022-09-17T04:41:20.943Z,10.90
2022-09-17T04:43:48.875Z,10.90
2022-09-17T04:46:16.660Z,10.90
2022-09-17T04:48:44.435Z,10.90
2022-09-17T04:51:11.022Z,10.90
2022-09-17T04:53:37.625Z,10.90
2022-09-17T04:56:05.590Z,10.90
2022-09-17T04:58:33.314Z,10.90
2022-09-17T05:01:01.220Z,10.90
2022-09-17T05:03:29.233Z,10.90
2022-09-17T05:05:57.307Z,10.90
2022-09-17T05:08:25.423Z,10.90
2022-09-17T05:10:53.273Z,10.90
2022-09-17T05:13:22.503Z,10.90
2022-09-17T05:15:58.911Z,10.90
2022-09-17T05:18:30.218Z,10.90
2022-09-17T05:21:00.184Z,11.00
2022-09-17T05:23:27.942Z,10.90
2022-09-17T05:26:02.481Z,10.90
2022-09-17T05:28:32.688Z,10.90
2022-09-17T05:31:02.833Z,11.00
2022-09-17T05:33:33.179Z,11.00
2022-09-17T05:35:59.765Z,11.00
2022-09-17T05:38:26.445Z,11.00
2022-09-17T05:40:53.175Z,11.00
2022-09-17T05:43:20.977Z,11.10
2022-09-17T05:45:48.795Z,11.10
2022-09-17T05:48:16.585Z,11.10
2022-09-17T05:50:43.212Z,11.10
2022-09-17T05:53:13.644Z,11.10
2022-09-17T05:55:42.579Z,11.10
2022-09-17T05:58:15.696Z,11.20
2022-09-17T06:00:45.041Z,11.20
2022-09-17T06:03:14.810Z,11.20
2022-09-17T06:05:41.799Z,11.20
2022-09-17T06:08:10.254Z,11.20
2022-09-17T06:10:39.011Z,11.30
2022-09-17T06:13:07.373Z,11.30
2022-09-17T06:15:35.275Z,11.30
2022-09-17T06:18:03.680Z,11.40
2022-09-17T06:20:34.038Z,11.40
2022-09-17T06:23:04.538Z,11.40
2022-09-17T06:25:33.528Z,11.40
2022-09-17T06:28:04.400Z,11.40
2022-09-17T06:30:35.732Z,11.40
2022-09-17T06:33:03.639Z,11.40
2022-09-17T06:35:30.250Z,11.40
2022-09-17T06:37:56.825Z,11.50
2022-09-17T06:40:23.512Z,11.40
2022-09-17T06:42:56.482Z,11.50
2022-09-17T06:45:24.372Z,11.50
2022-09-17T06:47:51.954Z,11.50
2022-09-17T06:50:18.931Z,11.50
2022-09-17T06:52:50.289Z,11.50
2022-09-17T06:55:18.334Z,11.50
2022-09-17T06:57:46.556Z,11.50
2022-09-17T07:00:15.104Z,11.50
2022-09-17T07:02:42.988Z,11.50
2022-09-17T07:05:09.798Z,11.50
2022-09-17T07:07:39.329Z,11.50
2022-09-17T07:10:10.298Z,11.60
2022-09-17T07:12:41.014Z,11.60
2022-09-17T07:15:10.251Z,11.60
2022-09-17T07:17:37.889Z,11.60
2022-09-17T07:20:08.406Z,11.60
2022-09-17T07:22:36.549Z,11.50
2022-09-17T07:25:04.391Z,11.60
2022-09-17T07:27:31.974Z,11.50
2022-09-17T07:29:59.659Z,11.60
2022-09-17T07:32:30.042Z,11.60
2022-09-17T07:34:57.699Z,11.60
2022-09-17T07:37:24.314Z,11.70
2022-09-17T07:39:52.165Z,11.70
2022-09-17T07:42:20.030Z,11.70
2022-09-17T07:44:46.653Z,11.80
2022-09-17T07:47:14.427Z,11.80
2022-09-17T07:49:42.606Z,11.90
2022-09-17T07:52:09.212Z,11.80
2022-09-17T07:54:37.309Z,11.90
2022-09-17T07:57:08.079Z,11.90
2022-09-17T07:59:38.313Z,11.90
2022-09-17T08:02:13.276Z,11.90
2022-09-17T08:04:46.748Z,11.90
2022-09-17T08:07:13.504Z,12.00
2022-09-17T08:09:40.136Z,12.00
2022-09-17T08:12:08.256Z,12.00
2022-09-17T08:14:36.232Z,12.10
2022-09-17T08:17:07.728Z,12.00
2022-09-17T08:19:35.869Z,12.10
2022-09-17T08:22:03.698Z,12.10
2022-09-17T08:24:31.656Z,12.20
2022-09-17T08:26:59.767Z,12.20
2022-09-17T08:29:30.093Z,12.20
2022-09-17T08:32:01.173Z,12.30
2022-09-17T08:34:29.174Z,12.40
2022-09-17T08:36:56.936Z,12.40
2022-09-17T08:39:24.734Z,12.40
2022-09-17T08:42:19.315Z,12.40
2022-09-17T08:44:51.625Z,12.50
2022-09-17T08:47:27.862Z,12.50
2022-09-17T08:49:58.633Z,12.50
2022-09-17T08:52:59.275Z,12.50
2022-09-17T08:55:40.959Z,12.60
2022-09-17T08:58:32.285Z,12.60
2022-09-17T09:01:19.192Z,12.70
2022-09-17T09:04:13.974Z,12.70
2022-09-17T09:06:49.036Z,12.60
2022-09-17T09:09:24.980Z,12.50
2022-09-17T09:12:00.936Z,12.50
2022-09-17T09:15:02.974Z,12.50
2022-09-17T09:17:41.239Z,12.60
2022-09-17T09:20:28.771Z,12.70
2022-09-17T09:23:02.773Z,12.80
2022-09-17T09:25:41.114Z,12.80
2022-09-17T09:29:13.400Z,12.80
2022-09-17T09:32:00.128Z,12.90
2022-09-17T09:34:28.608Z,13.00
2022-09-17T09:37:32.248Z,13.00
2022-09-17T09:40:31.918Z,13.00
2022-09-17T09:43:04.040Z,13.10
2022-09-17T09:46:09.632Z,13.20
2022-09-17T09:48:52.127Z,13.30
2022-09-17T09:51:24.466Z,13.40
2022-09-17T09:54:30.481Z,13.40
2022-09-17T09:57:22.272Z,13.40
2022-09-17T09:59:50.025Z,13.40
2022-09-17T10:02:17.813Z,13.30
2022-09-17T10:04:49.252Z,13.30
2022-09-17T10:07:22.854Z,13.40
2022-09-17T10:10:09.379Z,13.50
2022-09-17T10:12:37.327Z,13.50
2022-09-17T10:15:24.362Z,13.60
2022-09-17T10:18:21.303Z,13.70
2022-09-17T10:21:02.911Z,13.70
2022-09-17T10:23:38.293Z,13.80
2022-09-17T10:26:06.658Z,13.90
2022-09-17T10:28:53.598Z,14.00
2022-09-17T10:31:21.830Z,14.00
2022-09-17T10:34:01.473Z,14.00
2022-09-17T10:36:45.475Z,14.00
2022-09-17T10:39:36.756Z,14.00
2022-09-17T10:42:18.127Z,13.90
2022-09-17T10:44:58.024Z,13.60
2022-09-17T10:47:30.682Z,13.10
2022-09-17T10:50:05.325Z,12.80
2022-09-17T10:52:39.391Z,12.70
2022-09-17T10:55:37.169Z,12.80
2022-09-17T10:58:23.183Z,12.80
2022-09-17T11:01:18.718Z,12.90
2022-09-17T11:04:08.004Z,13.00
2022-09-17T11:06:53.584Z,13.10
2022-09-17T11:09:45.341Z,13.30
2022-09-17T11:12:23.128Z,13.40
2022-09-17T11:14:52.705Z,13.50
2022-09-17T11:17:56.964Z,13.60
2022-09-17T11:20:48.568Z,13.80
2022-09-17T11:23:33.604Z,14.00
2022-09-17T11:26:26.154Z,14.00
2022-09-17T11:29:14.534Z,13.90
2022-09-17T11:32:07.190Z,13.90
2022-09-17T11:34:51.159Z,13.90
2022-09-17T11:37:27.639Z,14.00
2022-09-17T11:39:54.348Z,14.10
2022-09-17T11:42:56.541Z,14.10
2022-09-17T11:45:34.541Z,14.10
2022-09-17T11:48:28.272Z,14.00
2022-09-17T11:51:17.039Z,14.00
2022-09-17T11:54:10.607Z,13.90
2022-09-17T11:56:54.069Z,13.60
2022-09-17T11:59:38.172Z,13.70
2022-09-17T12:02:36.272Z,13.80
2022-09-17T12:05:21.919Z,14.00
2022-09-17T12:07:56.401Z,14.10
2022-09-17T12:10:31.951Z,14.30
2022-09-17T12:13:38.647Z,14.40
2022-09-17T12:16:25.825Z,14.50
2022-09-17T12:19:11.370Z,14.50
2022-09-17T12:21:59.406Z,14.60
2022-09-17T12:24:31.389Z,14.60
2022-09-17T12:27:17.938Z,14.40
2022-09-17T12:30:23.114Z,14.30
2022-09-17T12:33:11.500Z,14.20
2022-09-17T12:36:08.527Z,14.20
2022-09-17T12:39:09.249Z,14.50
2022-09-17T12:41:53.899Z,14.80
2022-09-17T12:44:46.254Z,14.90
2022-09-17T12:47:49.875Z,14.80
2022-09-17T12:50:44.185Z,14.80
2022-09-17T12:53:36.712Z,15.00
2022-09-17T12:56:22.159Z,15.40
2022-09-17T12:58:57.715Z,15.70
2022-09-17T13:01:40.362Z,15.80
2022-09-17T13:05:07.028Z,15.60
2022-09-17T13:07:39.396Z,15.30
2022-09-17T13:10:40.075Z,15.00
2022-09-17T13:13:45.496Z,15.00
2022-09-17T13:16:44.397Z,14.70
2022-09-17T13:19:47.172Z,14.60
2022-09-17T13:22:18.425Z,14.80
2022-09-17T13:24:47.407Z,15.00
2022-09-17T13:27:23.945Z,15.20
2022-09-17T13:29:56.471Z,15.50
2022-09-17T13:32:38.292Z,15.70
2022-09-17T13:35:17.001Z,15.80
2022-09-17T13:37:52.760Z,16.00
2022-09-17T13:40:32.972Z,15.80
2022-09-17T13:43:10.731Z,15.90
2022-09-17T13:45:59.296Z,15.80
2022-09-17T13:48:32.571Z,15.80
2022-09-17T13:51:39.462Z,16.00
2022-09-17T13:54:09.705Z,16.20
2022-09-17T13:56:52.240Z,16.40
2022-09-17T13:59:26.344Z,16.60
2022-09-17T14:02:18.240Z,16.80
2022-09-17T14:04:44.890Z,17.00
2022-09-17T14:07:32.906Z,16.80
2022-09-17T14:10:40.491Z,16.60
2022-09-17T14:13:38.970Z,16.30
2022-09-17T14:16:31.007Z,15.90
2022-09-17T14:19:17.707Z,15.80
2022-09-17T14:22:05.191Z,15.70
2022-09-17T14:24:46.200Z,15.60
2022-09-17T14:27:21.743Z,15.90
2022-09-17T14:30:00.407Z,16.20
2022-09-17T14:32:44.639Z,16.30
2022-09-17T14:35:29.075Z,16.60
2022-09-17T14:38:22.265Z,16.50
2022-09-17T14:41:06.231Z,16.30
2022-09-17T14:43:58.283Z,15.90
2022-09-17T14:46:29.700Z,15.30
2022-09-17T14:49:24.786Z,14.80
2022-09-17T14:51:53.386Z,14.60
2022-09-17T14:54:24.174Z,14.30
2022-09-17T14:56:59.759Z,14.30
2022-09-17T14:59:52.611Z,14.40
2022-09-17T15:02:44.412Z,14.30
2022-09-17T15:05:35.926Z,14.30
2022-09-17T15:08:23.538Z,14.30
2022-09-17T15:11:10.627Z,14.20
2022-09-17T15:13:49.914Z,14.30
2022-09-17T15:16:27.936Z,14.40
2022-09-17T15:18:59.977Z,14.30
2022-09-17T15:21:43.113Z,14.40
2022-09-17T15:24:43.262Z,14.40
2022-09-17T15:27:28.657Z,14.50
2022-09-17T15:30:09.514Z,14.60
2022-09-17T15:32:37.585Z,14.70
2022-09-17T15:35:16.797Z,14.70
2022-09-17T15:38:21.238Z,14.60
2022-09-17T15:40:42.611Z,14.60
2022-09-17T15:43:28.236Z,14.50
2022-09-17T15:45:55.521Z,14.50
2022-09-17T15:48:27.761Z,14.30
2022-09-17T15:50:59.651Z,14.20
2022-09-17T15:53:30.470Z,14.20
2022-09-17T15:56:08.863Z,14.20
2022-09-17T15:58:58.834Z,13.90
2022-09-17T16:01:56.547Z,14.00
2022-09-17T16:04:30.267Z,13.80
2022-09-17T16:07:12.172Z,13.60
2022-09-17T16:09:52.386Z,13.70
2022-09-17T16:12:25.251Z,13.70
2022-09-17T16:14:55.715Z,13.60
2022-09-17T16:17:48.458Z,13.40
2022-09-17T16:20:20.700Z,13.20
2022-09-17T16:22:48.685Z,13.00
2022-09-17T16:25:20.680Z,13.10
2022-09-17T16:28:10.627Z,13.10
2022-09-17T16:30:41.378Z,13.00
2022-09-17T16:33:11.543Z,12.60
2022-09-17T16:35:38.269Z,12.50
2022-09-17T16:38:06.152Z,12.50
2022-09-17T16:40:33.606Z,12.40
2022-09-17T16:43:04.918Z,12.40
2022-09-17T16:45:32.940Z,12.20
2022-09-17T16:47:59.543Z,12.10
2022-09-17T16:50:28.068Z,12.00
2022-09-17T16:52:54.767Z,11.90
2022-09-17T16:55:22.772Z,11.80
2022-09-17T16:57:50.665Z,11.80
2022-09-17T17:00:20.205Z,11.80
2022-09-17T17:02:55.970Z,11.60
2022-09-17T17:05:24.853Z,11.60
2022-09-17T17:07:53.331Z,11.60
2022-09-17T17:10:22.755Z,11.60
2022-09-17T17:12:53.072Z,11.70
2022-09-17T17:15:19.744Z,11.60
2022-09-17T17:17:48.715Z,11.60
2022-09-17T17:20:16.761Z,11.50
2022-09-17T17:22:44.033Z,11.50
2022-09-17T17:25:12.412Z,11.60
2022-09-17T17:27:40.859Z,11.50
2022-09-17T17:30:09.815Z,11.50
2022-09-17T17:32:37.540Z,11.50
2022-09-17T17:35:05.150Z,11.60
2022-09-17T17:37:31.793Z,11.70
2022-09-17T17:39:58.505Z,11.60
2022-09-17T17:42:26.604Z,11.60
2022-09-17T17:44:54.741Z,11.60
2022-09-17T17:47:22.555Z,11.70
2022-09-17T17:49:49.183Z,11.60
2022-09-17T17:52:15.800Z,11.60
2022-09-17T17:54:43.989Z,11.50
2022-09-17T17:57:12.038Z,11.50
2022-09-17T17:59:39.866Z,11.40
2022-09-17T18:02:08.027Z,11.30
2022-09-17T18:04:36.078Z,11.30
2022-09-17T18:07:02.721Z,11.30
2022-09-17T18:09:30.518Z,11.30
2022-09-17T18:11:58.302Z,11.30
2022-09-17T18:14:26.018Z,11.10
2022-09-17T18:16:53.839Z,11.00
2022-09-17T18:19:21.641Z,10.90
2022-09-17T18:21:49.411Z,10.90
2022-09-17T18:24:16.081Z,10.90
2022-09-17T18:26:43.870Z,10.90
2022-09-17T18:29:15.008Z,10.80
2022-09-17T18:31:45.099Z,10.80
2022-09-17T18:34:17.630Z,10.70
2022-09-17T18:36:48.915Z,10.70
2022-09-17T18:42:07.183Z,10.70
2022-09-17T18:44:34.988Z,10.60
2022-09-17T18:47:02.876Z,10.60
2022-09-17T18:49:30.592Z,10.50
2022-09-17T18:51:57.458Z,10.40
2022-09-17T18:54:25.608Z,10.30
2022-09-17T18:56:53.414Z,10.30
2022-09-17T18:59:21.614Z,10.30
2022-09-17T19:01:49.427Z,10.30
2022-09-17T19:04:17.277Z,10.40
2022-09-17T19:06:43.922Z,10.30
2022-09-17T19:09:10.626Z,10.30
2022-09-17T19:11:37.246Z,10.30
2022-09-17T19:14:05.168Z,10.30
2022-09-17T19:16:33.256Z,10.30
2022-09-17T19:19:01.455Z,10.30
2022-09-17T19:21:28.447Z,10.30
2022-09-17T19:23:55.033Z,10.40
2022-09-17T19:26:25.263Z,10.40
2022-09-17T19:28:55.289Z,10.40
2022-09-17T19:31:23.232Z,10.40
2022-09-17T19:33:51.569Z,10.40
2022-09-17T19:36:19.896Z,10.40
2022-09-17T19:38:48.301Z,10.50
2022-09-17T19:41:19.227Z,10.50
2022-09-17T19:43:46.533Z,10.50
2022-09-17T19:46:15.511Z,10.40
2022-09-17T19:48:53.536Z,10.50
2022-09-17T19:51:21.939Z,10.50
2022-09-17T19:53:48.738Z,10.50
2022-09-17T19:56:19.255Z,10.40
2022-09-17T19:58:47.822Z,10.40
2022-09-17T20:01:16.471Z,10.40
2022-09-17T20:03:45.621Z,10.40
2022-09-17T20:06:15.569Z,10.40
2022-09-17T20:08:51.855Z,10.40
2022-09-17T20:11:21.919Z,10.40
2022-09-17T20:13:50.184Z,10.40
2022-09-17T20:16:21.651Z,10.40
2022-09-17T20:18:50.486Z,10.40
2022-09-17T20:21:25.613Z,10.40
2022-09-17T20:23:54.581Z,10.40
2022-09-17T20:26:22.618Z,10.40
2022-09-17T20:28:52.641Z,10.40
2022-09-17T20:31:23.439Z,10.40
2022-09-17T20:33:56.836Z,10.30
2022-09-17T20:36:27.965Z,10.30
2022-09-17T20:39:15.443Z,10.40
2022-09-17T20:41:42.739Z,10.40
2022-09-17T20:44:10.711Z,10.40
2022-09-17T20:46:37.441Z,10.50
2022-09-17T20:49:05.465Z,10.40
2022-09-17T20:51:33.277Z,10.40
2022-09-17T20:54:01.720Z,10.40
2022-09-17T20:56:32.308Z,10.40
2022-09-17T20:59:05.661Z,10.40
2022-09-17T21:01:35.562Z,10.40
2022-09-17T21:04:08.377Z,10.50
2022-09-17T21:06:41.781Z,10.50
2022-09-17T21:09:11.470Z,10.50
2022-09-17T21:11:39.346Z,10.50
2022-09-17T21:14:07.402Z,10.50
2022-09-17T21:16:37.706Z,10.50
2022-09-17T21:19:15.294Z,10.50
2022-09-17T21:21:46.182Z,10.50
2022-09-17T21:24:14.044Z,10.50
2022-09-17T21:26:43.708Z,10.50
2022-09-17T21:29:16.770Z,10.50
2022-09-17T21:31:47.407Z,10.50
2022-09-17T21:34:15.442Z,10.60
2022-09-17T21:36:43.496Z,10.60
2022-09-17T21:39:16.843Z,10.60
2022-09-17T21:41:44.932Z,10.50
2022-09-17T21:44:12.219Z,10.50
2022-09-17T21:46:39.983Z,10.50
2022-09-17T21:49:07.568Z,10.40
2022-09-17T21:51:37.657Z,10.50
2022-09-17T21:54:13.792Z,10.50
2022-09-17T21:56:47.019Z,10.50
2022-09-17T21:59:24.076Z,10.50
2022-09-17T22:01:52.133Z,10.50
2022-09-17T22:04:21.653Z,10.50
2022-09-17T22:06:50.041Z,10.50
2022-09-17T22:09:25.102Z,10.50
2022-09-17T22:11:52.870Z,10.50
2022-09-17T22:14:22.272Z,10.50
2022-09-17T22:16:53.207Z,10.50
2022-09-17T22:19:22.547Z,10.50
2022-09-17T22:21:51.361Z,10.60
2022-09-17T22:24:21.025Z,10.50
2022-09-17T22:26:55.762Z,10.50
2022-09-17T22:29:24.668Z,10.40
2022-09-17T22:31:53.030Z,10.40
2022-09-17T22:34:22.071Z,10.40
2022-09-17T22:36:50.150Z,10.40
2022-09-17T22:39:20.897Z,10.40
2022-09-17T22:41:47.662Z,10.50
2022-09-17T22:44:19.845Z,10.50
2022-09-17T22:46:50.320Z,10.50
2022-09-17T22:49:19.048Z,10.50
2022-09-17T22:51:46.975Z,10.50
2022-09-17T22:54:16.847Z,10.40
2022-09-17T22:56:46.307Z,10.40
2022-09-17T22:59:13.338Z,10.40
2022-09-17T23:01:40.758Z,10.40
2022-09-17T23:04:08.557Z,10.40
2022-09-17T23:06:39.078Z,10.50
2022-09-17T23:09:07.555Z,10.50
2022-09-17T23:11:37.133Z,10.50
2022-09-17T23:14:08.551Z,10.40
2022-09-17T23:16:41.438Z,10.50
2022-09-17T23:19:10.010Z,10.50
2022-09-17T23:21:38.662Z,10.50
2022-09-17T23:24:06.771Z,10.50
2022-09-17T23:26:35.136Z,10.50
2022-09-17T23:29:05.151Z,10.60
2022-09-17T23:31:36.310Z,10.60
2022-09-17T23:34:05.941Z,10.50
2022-09-17T23:36:44.426Z,10.50
2022-09-17T23:39:11.790Z,10.60
2022-09-17T23:41:41.953Z,10.60
2022-09-17T23:44:14.969Z,10.60
2022-09-17T23:46:45.407Z,10.60
2022-09-17T23:49:14.503Z,10.60
2022-09-17T23:51:42.995Z,10.70
2022-09-17T23:54:10.556Z,10.60
2022-09-17T23:56:37.571Z,10.60
2022-09-17T23:59:04.672Z,10.60
